Time;durP1;ratioP1;P1;durP2;ratioP2;P2;SDS_P1;SDS_P2;PMS_P1;PMS_P2;Temp;Humidity;BMP_temperature;BMP_pressure;BME280_temperature;BME280_humidity;BME280_pressure;Samples;Min_cycle;Max_cycle;Signal;HPM_P1;HPM_P2
2021/03/26 11:32:57;;;;;;;40.53;38.83;;;;;;;;;;5090853;27;20553;-73
2021/03/26 11:35:25;;;;;;;42.88;41.08;;;;;;;;;;5089642;28;20207;-73
2021/03/26 11:37:54;;;;;;;48.88;46.67;;;;;;;;;;5089504;28;20270;-74
2021/03/26 11:40:30;;;;;;;50.30;48.25;;;;;;;;;;5089509;28;20634;-74
2021/03/26 11:43:11;;;;;;;50.45;48.15;;;;;;;;;;5089532;28;20711;-74
2021/03/26 11:45:50;;;;;;;49.92;47.72;;;;;;;;;;5090752;28;20209;-74
2021/03/26 11:48:20;;;;;;;49.28;47.17;;;;;;;;;;5090654;28;20160;-74
2021/03/26 11:50:46;;;;;;;50.55;48.45;;;;;;;;;;5090565;28;20272;-74
2021/03/26 11:53:33;;;;;;;49.35;47.22;;;;;;;;;;5090601;28;20629;-74
2021/03/26 11:56:23;;;;;;;50.22;48.03;;;;;;;;;;5089180;28;20163;-74
2021/03/26 11:59:07;;;;;;;49.83;47.72;;;;;;;;;;5087386;28;20600;-74
2021/03/26 12:01:52;;;;;;;49.65;47.55;;;;;;;;;;5090346;28;20300;-74
2021/03/26 12:04:21;;;;;;;51.42;49.13;;;;;;;;;;5090332;28;20172;-74
2021/03/26 12:06:58;;;;;;;55.67;53.13;;;;;;;;;;5090202;28;20633;-74
2021/03/26 12:09:31;;;;;;;54.65;52.35;;;;;;;;;;5088997;28;20183;-74
2021/03/26 12:12:04;;;;;;;58.40;55.47;;;;;;;;;;5090024;28;20321;-74
2021/03/26 12:14:34;;;;;;;54.42;52.13;;;;;;;;;;5090298;28;20651;-74
2021/03/26 12:17:02;;;;;;;64.50;61.72;;;;;;;;;;5090157;28;20179;-74
2021/03/26 12:19:29;;;;;;;68.55;65.45;;;;;;;;;;5090056;28;20237;-74
2021/03/26 12:21:58;;;;;;;71.65;68.45;;;;;;;;;;5089997;28;20168;-74
2021/03/26 12:24:34;;;;;;;71.43;68.13;;;;;;;;;;5089967;28;20238;-74
2021/03/26 12:27:11;;;;;;;68.43;65.40;;;;;;;;;;5089947;28;20167;-74
2021/03/26 12:29:37;;;;;;;67.35;64.45;;;;;;;;;;5088602;28;20251;-74
2021/03/26 12:32:21;;;;;;;64.03;61.10;;;;;;;;;;5089640;28;20309;-74
2021/03/26 12:34:55;;;;;;;66.70;63.72;;;;;;;;;;5089768;28;20621;-74
2021/03/26 12:37:25;;;;;;;59.45;55.70;;;;;;;;;;5088695;28;20171;-74
2021/03/26 12:39:58;;;;;;;59.97;57.25;;;;;;;;;;5089749;28;20291;-74
2021/03/26 12:42:26;;;;;;;61.28;58.58;;;;;;;;;;5086505;28;20259;-74
2021/03/26 12:45:13;;;;;;;61.15;58.55;;;;;;;;;;5076118;28;20165;-74
2021/03/26 12:47:44;;;;;;;57.78;55.35;;;;;;;;;;5074807;28;20234;-74
2021/03/26 12:50:22;;;;;;;61.75;59.00;;;;;;;;;;5076126;28;20622;-74
2021/03/26 12:52:48;;;;;;;60.65;58.08;;;;;;;;;;5075870;28;20202;-74
2021/03/26 12:55:37;;;;;;;59.75;57.17;;;;;;;;;;5075918;28;20681;-74
2021/03/26 12:58:18;;;;;;;61.70;59.05;;;;;;;;;;5075916;28;20161;-74
2021/03/26 13:01:07;;;;;;;60.38;57.80;;;;;;;;;;5075811;28;20559;-74
2021/03/26 13:03:33;;;;;;;61.97;59.38;;;;;;;;;;5075814;28;20661;-74
2021/03/26 13:06:19;;;;;;;63.13;60.45;;;;;;;;;;5075582;28;20164;-74
2021/03/26 13:08:47;;;;;;;63.95;61.13;;;;;;;;;;5075534;28;20173;-74
2021/03/26 13:11:16;;;;;;;69.03;66.03;;;;;;;;;;5075514;28;20218;-74
2021/03/26 13:13:42;;;;;;;72.18;69.07;;;;;;;;;;5075551;28;20241;-74
2021/03/26 13:16:11;;;;;;;70.65;67.60;;;;;;;;;;5075563;28;20160;-74
2021/03/26 13:18:57;;;;;;;67.47;64.60;;;;;;;;;;5075478;28;20658;-74
2021/03/26 13:21:26;;;;;;;69.07;65.88;;;;;;;;;;5075460;28;20633;-74
2021/03/26 13:23:59;;;;;;;70.20;67.18;;;;;;;;;;5075480;28;20230;-74
2021/03/26 13:26:27;;;;;;;74.28;70.80;;;;;;;;;;5075314;28;20176;-74
2021/03/26 13:28:57;;;;;;;77.40;74.05;;;;;;;;;;5075263;28;20180;-74
2021/03/26 13:31:32;;;;;;;82.82;79.18;;;;;;;;;;5075007;28;20216;-74
2021/03/26 13:33:58;;;;;;;83.13;79.43;;;;;;;;;;5075239;28;20172;-74
2021/03/26 13:36:59;;;;;;;82.22;78.43;;;;;;;;;;5075139;28;20248;-74
2021/03/26 13:39:25;;;;;;;83.18;79.35;;;;;;;;;;5056011;28;20174;-74
2021/03/26 13:42:10;;;;;;;88.18;84.30;;;;;;;;;;5074701;28;20189;-74
2021/03/26 13:44:42;;;;;;;90.85;86.85;;;;;;;;;;5074998;28;20614;-74
2021/03/26 13:47:28;;;;;;;89.80;85.85;;;;;;;;;;5074922;28;20174;-74
2021/03/26 13:50:00;;;;;;;95.10;90.82;;;;;;;;;;5074705;28;20184;-74
2021/03/26 13:52:32;;;;;;;92.93;88.90;;;;;;;;;;5073368;28;20565;-74
2021/03/26 13:55:00;;;;;;;81.75;78.13;;;;;;;;;;5073766;28;20210;-74
2021/03/26 13:57:32;;;;;;;89.45;85.45;;;;;;;;;;5074661;28;20238;-74
2021/03/26 14:00:05;;;;;;;96.82;92.47;;;;;;;;;;5074659;28;20525;-74
2021/03/26 14:02:35;;;;;;;98.00;93.65;;;;;;;;;;5074609;28;20172;-74
2021/03/26 14:05:05;;;;;;;91.78;87.72;;;;;;;;;;5074628;28;20165;-74
2021/03/26 14:07:34;;;;;;;80.25;76.78;;;;;;;;;;5074497;28;20649;-74
2021/03/26 14:10:13;;;;;;;85.63;81.82;;;;;;;;;;5074466;28;20263;-74
2021/03/26 14:12:45;;;;;;;96.53;92.22;;;;;;;;;;5074287;28;20270;-74
2021/03/26 14:15:19;;;;;;;81.60;78.10;;;;;;;;;;5074348;28;20157;-74
2021/03/26 14:17:48;;;;;;;76.93;73.57;;;;;;;;;;5074314;28;20211;-75
2021/03/26 14:20:20;;;;;;;78.28;74.90;;;;;;;;;;5074298;28;20372;-74
2021/03/26 14:22:46;;;;;;;75.95;72.65;;;;;;;;;;5074209;28;20639;-75
2021/03/26 14:25:12;;;;;;;67.63;64.68;;;;;;;;;;5074144;28;20251;-75
2021/03/26 14:27:43;;;;;;;70.75;67.65;;;;;;;;;;5074335;28;20164;-74
2021/03/26 14:30:09;;;;;;;75.45;72.18;;;;;;;;;;5074095;28;20179;-74
2021/03/26 14:32:38;;;;;;;75.07;71.88;;;;;;;;;;5073814;28;20228;-74
2021/03/26 14:35:08;;;;;;;75.95;72.38;;;;;;;;;;5072674;28;20530;-74
2021/03/26 14:37:38;;;;;;;81.07;77.35;;;;;;;;;;5073912;28;20217;-74
2021/03/26 14:40:11;;;;;;;74.85;71.60;;;;;;;;;;5073937;28;20301;-74
2021/03/26 14:42:42;;;;;;;70.88;67.68;;;;;;;;;;5072698;28;20164;-74
2021/03/26 14:45:20;;;;;;;73.03;69.82;;;;;;;;;;5073809;28;20160;-74
2021/03/26 14:47:48;;;;;;;69.72;66.75;;;;;;;;;;5073798;28;20178;-74
2021/03/26 14:50:22;;;;;;;74.95;71.75;;;;;;;;;;5073648;28;20184;-74
2021/03/26 14:52:52;;;;;;;72.50;68.80;;;;;;;;;;5073605;28;20196;-74
2021/03/26 14:55:41;;;;;;;72.28;69.03;;;;;;;;;;5072456;28;20168;-75
2021/03/26 14:58:23;;;;;;;72.85;69.72;;;;;;;;;;5073094;28;20196;-74
2021/03/26 15:01:05;;;;;;;76.68;73.35;;;;;;;;;;5073583;28;20168;-74
2021/03/26 15:03:31;;;;;;;78.20;74.60;;;;;;;;;;5073585;28;20192;-74
2021/03/26 15:06:15;;;;;;;81.00;77.55;;;;;;;;;;5073289;28;20635;-74
2021/03/26 15:08:56;;;;;;;78.20;74.82;;;;;;;;;;5072271;28;20175;-74
2021/03/26 15:11:34;;;;;;;68.25;65.32;;;;;;;;;;5073508;28;20587;-74
2021/03/26 15:14:01;;;;;;;67.75;64.78;;;;;;;;;;5073453;28;20161;-74
2021/03/26 15:16:41;;;;;;;79.47;75.75;;;;;;;;;;5073333;28;20168;-74
2021/03/26 15:19:14;;;;;;;87.15;83.22;;;;;;;;;;5072007;28;20229;-74
2021/03/26 15:21:41;;;;;;;82.63;79.07;;;;;;;;;;5073359;28;20239;-74
2021/03/26 15:24:19;;;;;;;80.28;76.78;;;;;;;;;;5073298;28;20168;-74
2021/03/26 15:26:49;;;;;;;75.60;72.25;;;;;;;;;;5073354;28;20182;-74
2021/03/26 15:29:20;;;;;;;81.45;77.90;;;;;;;;;;5073301;28;20172;-74
2021/03/26 15:32:00;;;;;;;78.95;75.53;;;;;;;;;;5072993;28;20218;-74
2021/03/26 15:34:34;;;;;;;76.75;73.38;;;;;;;;;;5071919;28;20664;-74
2021/03/26 15:37:03;;;;;;;76.93;73.47;;;;;;;;;;5073196;28;20194;-74
2021/03/26 15:39:32;;;;;;;78.05;74.70;;;;;;;;;;5073222;28;20641;-74
2021/03/26 15:42:01;;;;;;;93.22;89.15;;;;;;;;;;5071919;28;20230;-74
2021/03/26 15:44:53;;;;;;;84.05;80.38;;;;;;;;;;5073069;28;20247;-74
2021/03/26 15:47:26;;;;;;;85.35;81.63;;;;;;;;;;5072856;28;20245;-74
2021/03/26 15:50:12;;;;;;;86.25;82.50;;;;;;;;;;5073060;28;20173;-74
2021/03/26 15:52:58;;;;;;;89.40;85.38;;;;;;;;;;5072288;28;20216;-72
2021/03/26 15:55:45;;;;;;;78.97;74.68;;;;;;;;;;5072881;28;20263;-72
2021/03/26 15:58:13;;;;;;;87.78;83.95;;;;;;;;;;5071979;28;20510;-75
2021/03/26 16:00:58;;;;;;;80.25;76.80;;;;;;;;;;5071715;28;20541;-74
2021/03/26 16:03:30;;;;;;;79.53;76.07;;;;;;;;;;5072843;28;20229;-74
2021/03/26 16:06:11;;;;;;;79.18;75.75;;;;;;;;;;5072911;28;20255;-74
2021/03/26 16:08:56;;;;;;;77.60;74.20;;;;;;;;;;5072921;28;20251;-74
2021/03/26 16:11:25;;;;;;;83.28;79.65;;;;;;;;;;5072673;28;20539;-74
2021/03/26 16:13:57;;;;;;;80.95;77.20;;;;;;;;;;5072828;28;20187;-74
2021/03/26 16:16:52;;;;;;;80.75;77.28;;;;;;;;;;5073054;28;20568;-74
2021/03/26 16:19:34;;;;;;;79.55;76.03;;;;;;;;;;5075288;28;20250;-74
2021/03/26 16:22:26;;;;;;;82.05;78.50;;;;;;;;;;5076414;28;20176;-73
2021/03/26 16:24:58;;;;;;;99.07;94.70;;;;;;;;;;5076576;28;20214;-75
2021/03/26 16:27:27;;;;;;;82.53;78.97;;;;;;;;;;5075166;28;20173;-74
2021/03/26 16:29:56;;;;;;;76.93;73.63;;;;;;;;;;5076424;28;20645;-74
2021/03/26 16:32:29;;;;;;;76.43;73.13;;;;;;;;;;5075970;28;20303;-78
2021/03/26 16:35:10;;;;;;;75.03;71.80;;;;;;;;;;5074972;28;20177;-77
2021/03/26 16:37:42;;;;;;;80.60;77.13;;;;;;;;;;5074996;28;20164;-77
2021/03/26 16:40:27;;;;;;;73.78;70.57;;;;;;;;;;5074898;28;20175;-77
2021/03/26 16:43:12;;;;;;;78.15;74.72;;;;;;;;;;5076096;28;20665;-78
2021/03/26 16:45:41;;;;;;;75.50;72.15;;;;;;;;;;5076080;28;20530;-77
2021/03/26 16:48:26;;;;;;;74.03;70.85;;;;;;;;;;5075959;28;20165;-77
2021/03/26 16:51:10;;;;;;;75.38;72.13;;;;;;;;;;5075822;28;20314;-77
2021/03/26 16:53:50;;;;;;;76.35;73.10;;;;;;;;;;5074468;28;20225;-77
2021/03/26 16:56:25;;;;;;;76.07;72.75;;;;;;;;;;5075863;28;20164;-77
2021/03/26 16:59:15;;;;;;;74.85;71.57;;;;;;;;;;5076088;28;20199;-72
2021/03/26 17:01:59;;;;;;;76.13;72.85;;;;;;;;;;5075851;28;20234;-72
2021/03/26 17:04:33;;;;;;;75.32;72.13;;;;;;;;;;5074618;28;20254;-72
2021/03/26 17:07:05;;;;;;;81.93;78.40;;;;;;;;;;5075747;28;20214;-72
2021/03/26 17:09:40;;;;;;;81.70;78.10;;;;;;;;;;5075699;28;20231;-72
2021/03/26 17:12:25;;;;;;;85.07;81.38;;;;;;;;;;5075640;28;20196;-72
